Latest Coastal Weather Observations for Cape Bruny AWS

IDT60701

Issued at 9:51 pm EDT Thursday 11 February 2016 (issued every 10 minutes, with the page automatically refreshed every 10 minutes)

About coastal observations | Map of coastal stations | Coastal observations for TAS | Marine services | Other Formats
Station Details ID: 094198 Name: CAPE BRUNY (CAPE BRUNY) Lat: -43.49 Lon: 147.14 Height: 59.7 m
Data from the previous 72 hours. | See also: Recent months at Cape Bruny AWS
Date/Time
EDT
Temp

°C
Wind Pressure Rain
since 9am
mm
Weather Cloud Vis
km
Sea
Height
m
Swell
Dir
 
Speed
knots
Gust
knots
hPa Trend Height
m
Period
s
Dir
11/09:30pm 15.6 SW 8 14 1018.6 - 0.0 - - - - - - -
11/09:00pm 15.7 SW 7 11 1018.3 - 0.0 - - - - - - -
11/08:30pm 15.7 SW 11 16 1018.2 - 0.0 - - - - - - -
11/08:00pm 15.7 SW 8 12 1017.8 - 0.0 - - - - - - -
11/07:30pm 16.4 SW 9 16 1017.5 - 0.0 - - - - - - -
11/07:00pm 16.8 SSW 9 14 1017.2 - 0.0 - - - - - - -
11/06:30pm 17.5 SSW 8 16 1016.9 - 0.0 - - - - - - -
11/06:00pm 17.5 S 9 16 1016.8 - 0.0 - - - - - - -
11/05:30pm 18.1 SSW 10 16 1016.7 - 0.0 - - - - - - -
11/05:00pm 18.0 SSW 9 17 1016.7 - 0.0 - - - - - - -
11/04:30pm 18.4 SW 11 17 1016.6 - 0.0 - - - - - - -
11/04:00pm 18.2 SW 14 20 1016.6 - 0.0 - - - - - - -
11/03:30pm 18.9 SW 11 16 1016.7 - 0.0 - - - - - - -
11/03:00pm 18.5 SW 13 21 1016.7 - 0.0 - - - - - - -
11/02:30pm 18.6 SW 14 21 1016.8 - 0.0 - - - - - - -
11/02:00pm 18.8 SW 13 19 1016.9 - 0.0 - - - - - - -
11/01:30pm 18.5 SW 15 20 1016.9 - 0.0 - - - - - - -
11/01:00pm 18.1 SW 15 21 1016.8 - 0.0 - - - - - - -
11/12:30pm 18.2 SW 16 22 1016.7 - 0.0 - - - - - - -
11/12:00pm 17.4 SW 14 18 1016.7 - 0.0 - - - - - - -
11/11:30am 17.9 SW 13 18 1016.6 - 0.0 - - - - - - -
11/11:00am 17.6 SW 13 19 1016.7 - 0.0 - - - - - - -
11/10:30am 18.5 WSW 11 17 1016.8 - 0.0 - - - - - - -
11/10:00am 17.5 WSW 13 16 1016.7 - 0.0 - - - - - - -
11/09:30am 16.8 WSW 15 19 1016.5 - 0.0 - - - - - - -
11/09:00am 16.3 WSW 17 21 1016.4 - 1.6 - - - - - - -
11/08:30am 15.6 WSW 14 19 1016.0 - 1.6 - - - - - - -
11/08:00am 15.1 WSW 15 19 1015.5 - 1.6 - - - - - - -
11/07:30am 14.9 W 12 16 1015.1 - 1.6 - - - - - - -
11/07:00am 14.4 WSW 13 17 1014.8 - 1.6 - - - - - - -
11/06:30am 14.1 W 12 16 1014.5 - 1.6 - - - - - - -
11/06:00am 14.2 WSW 10 14 1014.3 - 1.6 - - - - - - -
11/05:30am 14.3 WSW 11 15 1014.0 - 1.6 - - - - - - -
11/05:00am 14.5 W 11 14 1013.8 - 1.6 - - - - - - -
11/04:30am 14.4 WSW 14 19 1013.5 - 1.6 - - - - - - -
11/04:00am 14.4 WSW 11 14 1013.6 - 1.6 - - - - - - -
11/03:30am 14.5 SW 3 5 1013.5 - 1.6 - - - - - - -
11/03:00am 14.3 N 2 4 1013.6 - 1.6 - - - - - - -
11/02:30am 14.3 W 3 6 1013.7 - 1.6 - - - - - - -
11/02:00am 13.9 NNW 4 7 1013.6 - 1.6 - - - - - - -
11/01:30am 14.8 WSW 9 13 1013.7 - 1.6 - - - - - - -
11/01:00am 14.3 SW 8 12 1013.7 - 1.6 - - - - - - -
11/12:30am 14.3 SW 7 10 1013.5 - 1.6 - - - - - - -
11/12:00am 14.3 SW 7 10 1013.4 - 1.6 - - - - - - -
 
Date/Time
EDT
Temp

°C
Wind Pressure Rain
since 9am
mm
Weather Cloud Vis
km
Sea
Height
m
Swell
Dir
 
Speed
knots
Gust
knots
hPa Trend Height
m
Period
s
Dir
10/11:30pm 14.2 SW 9 11 1013.4 - 1.6 - - - - - - -
10/11:00pm 13.9 WSW 8 11 1013.5 - 1.6 - - - - - - -
10/10:30pm 13.4 W 6 7 1013.5 - 1.6 - - - - - - -
10/10:00pm 13.4 WSW 9 10 1013.5 - 0.8 - - - - - - -
10/09:30pm 13.6 WSW 13 17 1013.3 - 0.2 - - - - - - -
10/09:00pm 14.5 SW 16 21 1012.6 - 0.0 - - - - - - -
10/08:30pm 15.7 WSW 14 19 1012.3 - 0.0 - - - - - - -
10/08:18pm 17.1 W 21 26 1012.2 - 0.0 - - - - - - -
10/08:00pm 18.2 W 21 25 1011.7 - 0.0 - - - - - - -
10/07:30pm 18.6 W 16 19 1011.4 - 0.0 - - - - - - -
10/07:00pm 19.4 W 18 21 1011.0 - 0.0 - - - - - - -
10/06:30pm 21.1 W 15 17 1010.8 - 0.0 - - - - - - -
10/06:00pm 19.8 SSW 5 8 1010.6 - 0.0 - - - - - - -
10/05:30pm 21.3 WNW 13 16 1010.5 - 0.0 - - - - - - -
10/05:00pm 20.9 WNW 12 15 1010.6 - 0.0 - - - - - - -
10/04:30pm 20.3 WNW 10 13 1010.8 - 0.0 - - - - - - -
10/04:00pm 20.8 WNW 17 22 1010.9 - 0.0 - - - - - - -
10/03:30pm 20.4 WNW 9 14 1011.1 - 0.0 - - - - - - -
10/03:00pm 19.8 W 4 8 1011.4 - 0.0 - - - - - - -
10/02:30pm 19.3 S 4 6 1011.7 - 0.0 - - - - - - -
10/02:00pm 19.0 WSW 7 9 1011.6 - 0.0 - - - - - - -
10/01:30pm 20.5 W 8 10 1011.5 - 0.0 - - - - - - -
10/01:00pm 21.1 NW 8 12 1011.7 - 0.0 - - - - - - -
10/12:30pm 19.1 NNW 7 11 1012.0 - 0.0 - - - - - - -
10/12:00pm 18.6 NW 6 10 1012.3 - 0.0 - - - - - - -
10/11:30am 18.9 WNW 7 11 1012.6 - 0.0 - - - - - - -
10/11:00am 18.8 WNW 9 11 1012.8 - 0.0 - - - - - - -
10/10:30am 18.4 WNW 8 10 1012.9 - 0.0 - - - - - - -
10/10:00am 17.3 NW 11 14 1012.9 - 0.0 - - - - - - -
10/09:30am 16.9 NW 9 16 1012.8 - 0.0 - - - - - - -
10/09:00am 16.8 WNW 9 13 1012.9 - 0.0 - - - - - - -
10/08:30am 16.5 NW 9 13 1012.6 - 0.0 - - - - - - -
10/08:00am 16.8 NW 7 9 1012.5 - 0.0 - - - - - - -
10/07:30am 15.9 N 6 8 1012.6 - 0.0 - - - - - - -
10/07:00am 15.6 NNW 8 11 1012.5 - 0.0 - - - - - - -
10/06:30am 15.1 N 8 11 1012.4 - 0.0 - - - - - - -
10/06:00am 15.6 NW 11 14 1012.3 - 0.0 - - - - - - -
10/05:30am 15.3 NNW 11 15 1012.3 - 0.0 - - - - - - -
10/05:00am 15.4 NW 13 18 1012.6 - 0.0 - - - - - - -
10/04:30am 15.5 WNW 15 22 1012.7 - 0.0 - - - - - - -
10/04:00am 15.4 NW 12 16 1012.6 - 0.0 - - - - - - -
10/03:30am 15.2 W 12 14 1012.9 - 0.0 - - - - - - -
10/03:00am 15.0 WNW 9 13 1013.0 - 0.0 - - - - - - -
10/02:30am 15.5 WNW 15 19 1013.3 - 0.0 - - - - - - -
10/02:00am 15.7 W 21 25 1013.2 - 0.0 - - - - - - -
10/01:30am 15.8 W 18 21 1013.4 - 0.0 - - - - - - -
10/01:00am 15.9 W 17 20 1013.8 - 0.0 - - - - - - -
10/12:30am 16.0 W 18 21 1014.1 - 0.0 - - - - - - -
10/12:00am 15.5 WSW 11 14 1014.4 - 0.0 - - - - - - -
 
Date/Time
EDT
Temp

°C
Wind Pressure Rain
since 9am
mm
Weather Cloud Vis
km
Sea
Height
m
Swell
Dir
 
Speed
knots
Gust
knots
hPa Trend Height
m
Period
s
Dir
09/11:30pm 15.4 WSW 11 14 1014.7 - 0.0 - - - - - - -
09/11:00pm 15.1 SW 6 7 1014.8 - 0.0 - - - - - - -
09/10:30pm 15.9 SW 8 11 1015.1 - 0.0 - - - - - - -
09/10:00pm 15.8 SW 4 5 1015.2 - 0.0 - - - - - - -
09/09:30pm 16.1 WSW 10 13 1015.2 - 0.0 - - - - - - -
09/09:00pm 16.2 WSW 13 17 1015.1 - 0.0 - - - - - - -
09/08:30pm 16.2 WSW 13 17 1015.2 - 0.0 - - - - - - -
09/08:00pm 16.7 WSW 13 17 1015.2 - 0.0 - - - - - - -
09/07:30pm 17.9 WSW 11 17 1015.2 - 0.0 - - - - - - -
09/07:00pm 18.6 SW 12 17 1015.4 - 0.0 - - - - - - -
09/06:30pm 18.0 S 10 15 1015.5 - 0.0 - - - - - - -
09/06:00pm 18.3 S 10 16 1015.8 - 0.0 - - - - - - -
09/05:30pm 18.8 S 13 16 1016.2 - 0.0 - - - - - - -
09/05:00pm 19.3 S 11 19 1016.3 - 0.0 - - - - - - -
09/04:30pm 19.0 SE 9 14 1016.6 - 0.0 - - - - - - -
09/04:00pm 20.2 SSE 10 14 1017.0 - 0.0 - - - - - - -
09/03:30pm 20.7 SSE 12 15 1017.4 - 0.0 - - - - - - -
09/03:00pm 18.8 S 12 15 1017.6 - 0.0 - - - - - - -
09/02:30pm 20.9 SSE 9 13 1017.6 - 0.0 - - - - - - -
09/02:00pm 20.8 SE 10 14 1018.1 - 0.0 - - - - - - -
09/01:30pm 21.2 SSE 8 11 1018.5 - 0.0 - - - - - - -
09/01:00pm 21.0 SSE 9 12 1018.9 - 0.0 - - - - - - -
09/12:30pm 21.4 SSE 8 11 1019.2 - 0.0 - - - - - - -
09/12:00pm 20.8 SE 9 12 1019.6 - 0.0 - - - - - - -
09/11:30am 20.1 S 7 9 1019.8 - 0.0 - - - - - - -
09/11:00am 20.1 SE 7 11 1020.1 - 0.0 - - - - - - -
09/10:30am 19.3 ESE 7 11 1020.3 - 0.0 - - - - - - -
09/10:00am 18.6 E 6 8 1020.6 - 0.0 - - - - - - -
09/09:30am 18.4 NE 3 6 1020.9 - 0.0 - - - - - - -
09/09:00am 17.4 WNW 4 5 1021.1 - 0.0 - - - - - - -
09/08:30am 16.8 WSW 2 6 1021.0 - 0.0 - - - - - - -
09/08:00am 16.0 WSW 7 9 1020.7 - 0.0 - - - - - - -
09/07:30am 15.3 W 8 11 1020.7 - 0.0 - - - - - - -
09/07:00am 14.8 W 9 13 1020.6 - 0.0 - - - - - - -
09/06:30am 14.4 WSW 9 12 1020.6 - 0.0 - - - - - - -
09/06:00am 14.6 WSW 9 12 1020.4 - 0.0 - - - - - - -
09/05:30am 14.7 WSW 11 14 1020.3 - 0.0 - - - - - - -
09/05:00am 14.7 WSW 11 13 1020.3 - 0.0 - - - - - - -
09/04:30am 15.0 WSW 12 15 1020.3 - 0.0 - - - - - - -
09/04:00am 15.3 WSW 13 17 1020.2 - 0.0 - - - - - - -
09/03:30am 15.2 WSW 13 17 1020.2 - 0.0 - - - - - - -
09/03:00am 15.6 WSW 16 20 1020.2 - 0.0 - - - - - - -
09/02:30am 15.5 WSW 15 19 1020.3 - 0.0 - - - - - - -
09/02:00am 15.7 WSW 13 16 1020.4 - 0.0 - - - - - - -
09/01:30am 15.7 WSW 14 17 1020.5 - 0.0 - - - - - - -
09/01:00am 15.6 WSW 12 17 1020.6 - 0.0 - - - - - - -
09/12:30am 16.0 WSW 13 16 1020.7 - 0.0 - - - - - - -
09/12:00am 15.9 WSW 14 19 1020.5 - 0.0 - - - - - - -
 
Date/Time
EDT
Temp

°C
Wind Pressure Rain
since 9am
mm
Weather Cloud Vis
km
Sea
Height
m
Swell
Dir
 
Speed
knots
Gust
knots
hPa Trend Height
m
Period
s
Dir
08/11:30pm 16.1 WSW 13 18 1020.6 - 0.0 - - - - - - -
08/11:00pm 16.5 WSW 15 19 1020.7 - 0.0 - - - - - - -
08/10:30pm 16.4 WSW 19 24 1020.7 - 0.0 - - - - - - -
08/10:00pm 16.6 WSW 19 25 1020.7 - 0.0 - - - - - - -

Other Formats:

Comma delimited format used in spreadsheet applications
http://www.bom.gov.au/fwo/IDT60701/IDT60701.95967.axf

JavaScript Object Notation format (JSON) in row-major order
http://www.bom.gov.au/fwo/IDT60701/IDT60701.95967.json